createdAt,value
2022-12-20T00:00:09.801Z,1014.34
2022-12-20T00:01:09.801Z,1014.32
2022-12-20T00:02:09.894Z,1014.39
2022-12-20T00:03:09.858Z,1014.35
2022-12-20T00:04:09.784Z,1014.33
2022-12-20T00:05:09.783Z,1014.36
2022-12-20T00:06:09.794Z,1014.31
2022-12-20T00:07:09.776Z,1014.28
2022-12-20T00:08:09.768Z,1014.28
2022-12-20T00:09:09.767Z,1014.32
2022-12-20T00:10:09.752Z,1014.32
2022-12-20T00:11:09.788Z,1014.35
2022-12-20T00:12:09.750Z,1014.41
2022-12-20T00:13:09.745Z,1014.35
2022-12-20T00:14:09.739Z,1014.34
2022-12-20T00:15:09.733Z,1014.39
2022-12-20T00:16:09.730Z,1014.45
2022-12-20T00:17:09.726Z,1014.37
2022-12-20T00:18:09.799Z,1014.34
2022-12-20T00:19:09.728Z,1014.29
2022-12-20T00:20:09.710Z,1014.31
2022-12-20T00:21:09.752Z,1014.31
2022-12-20T00:22:09.696Z,1014.28
2022-12-20T00:23:09.698Z,1014.21
2022-12-20T00:24:09.701Z,1014.12
2022-12-20T00:25:09.689Z,1014.15
2022-12-20T00:26:09.675Z,1014.17
2022-12-20T00:27:09.712Z,1014.09
2022-12-20T00:28:09.668Z,1014.12
2022-12-20T00:29:09.672Z,1014.14
2022-12-20T00:30:09.663Z,1014.11
2022-12-20T00:31:09.691Z,1014.16
2022-12-20T00:32:09.754Z,1014.10
2022-12-20T00:33:09.653Z,1014.18
2022-12-20T00:34:09.645Z,1014.14
2022-12-20T00:35:09.679Z,1014.15
2022-12-20T00:36:09.643Z,1014.18
2022-12-20T00:37:09.631Z,1014.23
2022-12-20T00:38:09.628Z,1014.21
2022-12-20T00:39:09.640Z,1014.19
2022-12-20T00:40:09.618Z,1014.12
2022-12-20T00:41:09.616Z,1014.15
2022-12-20T00:42:09.605Z,1014.08
2022-12-20T00:43:09.642Z,1014.10
2022-12-20T00:44:09.608Z,1014.03
2022-12-20T00:45:09.600Z,1014.04
2022-12-20T00:46:09.588Z,1014.03
2022-12-20T00:47:09.641Z,1014.01
2022-12-20T00:48:09.577Z,1013.98
2022-12-20T00:49:09.582Z,1013.99
2022-12-20T00:50:09.585Z,1013.96
2022-12-20T00:51:09.576Z,1014.01
2022-12-20T00:52:09.565Z,1013.98
2022-12-20T00:53:09.566Z,1014.01
2022-12-20T00:54:09.552Z,1014.03
2022-12-20T00:55:09.550Z,1014.04
2022-12-20T00:56:09.547Z,1014.16
2022-12-20T00:57:09.551Z,1014.07
2022-12-20T00:58:09.541Z,1014.08
2022-12-20T00:59:09.556Z,1014.05
2022-12-20T01:00:09.527Z,1014.10
2022-12-20T01:01:09.550Z,1014.11
2022-12-20T01:02:09.713Z,1014.14
2022-12-20T01:03:09.673Z,1014.14
2022-12-20T01:04:09.539Z,1014.15
2022-12-20T01:05:09.505Z,1014.29
2022-12-20T01:06:09.494Z,1014.23
2022-12-20T01:07:09.502Z,1014.25
2022-12-20T01:08:09.488Z,1014.22
2022-12-20T01:09:09.486Z,1014.13
2022-12-20T01:10:09.475Z,1014.09
2022-12-20T01:11:09.480Z,1014.01
2022-12-20T01:12:09.476Z,1014.04
2022-12-20T01:13:09.471Z,1014.02
2022-12-20T01:14:09.462Z,1014.03
2022-12-20T01:15:09.484Z,1014.09
2022-12-20T01:16:09.503Z,1014.02
2022-12-20T01:17:09.459Z,1014.08
2022-12-20T01:18:09.451Z,1014.11
2022-12-20T01:19:09.438Z,1014.09
2022-12-20T01:20:09.432Z,1014.09
2022-12-20T01:21:09.432Z,1014.06
2022-12-20T01:22:09.426Z,1014.06
2022-12-20T01:23:09.423Z,1013.99
2022-12-20T01:24:09.415Z,1014.07
2022-12-20T01:25:09.422Z,1014.04
2022-12-20T01:26:09.405Z,1014.10
2022-12-20T01:27:09.409Z,1014.13
2022-12-20T01:28:09.395Z,1014.08
2022-12-20T01:29:09.408Z,1014.09
2022-12-20T01:30:09.391Z,1014.08
2022-12-20T01:31:09.418Z,1014.10
2022-12-20T01:32:09.463Z,1014.11
2022-12-20T01:33:09.376Z,1014.16
2022-12-20T01:34:09.372Z,1014.13
2022-12-20T01:35:09.370Z,1014.12
2022-12-20T01:36:09.360Z,1014.10
2022-12-20T01:37:09.366Z,1014.02
2022-12-20T01:38:09.347Z,1014.00
2022-12-20T01:39:09.359Z,1014.02
2022-12-20T01:40:09.342Z,1014.01
2022-12-20T01:41:09.339Z,1014.00
2022-12-20T01:42:09.331Z,1013.94
2022-12-20T01:43:09.331Z,1013.93
2022-12-20T01:44:09.325Z,1013.93
2022-12-20T01:45:09.327Z,1013.94
2022-12-20T01:46:09.495Z,1013.90
2022-12-20T01:47:09.338Z,1013.89
2022-12-20T01:48:09.313Z,1013.95
2022-12-20T01:49:09.301Z,1013.97
2022-12-20T01:50:09.300Z,1014.01
2022-12-20T01:51:09.292Z,1013.94
2022-12-20T01:52:09.290Z,1013.87
2022-12-20T01:53:09.301Z,1013.90
2022-12-20T01:54:09.288Z,1013.91
2022-12-20T01:55:09.274Z,1013.93
2022-12-20T01:56:09.297Z,1013.87
2022-12-20T01:57:09.263Z,1013.82
2022-12-20T01:58:09.264Z,1013.79
2022-12-20T01:59:09.259Z,1013.74
2022-12-20T02:00:09.263Z,1013.73
2022-12-20T02:01:09.367Z,1013.66
2022-12-20T02:02:09.449Z,1013.68
2022-12-20T02:03:09.434Z,1013.68
2022-12-20T02:04:09.236Z,1013.75
2022-12-20T02:05:09.228Z,1013.73
2022-12-20T02:06:09.224Z,1013.73
2022-12-20T02:07:09.218Z,1013.78
2022-12-20T02:08:09.224Z,1013.82
2022-12-20T02:09:09.211Z,1013.78
2022-12-20T02:10:09.217Z,1013.84
2022-12-20T02:11:09.206Z,1013.74
2022-12-20T02:12:09.202Z,1013.75
2022-12-20T02:13:09.196Z,1013.81
2022-12-20T02:14:09.192Z,1013.76
2022-12-20T02:15:09.182Z,1013.80
2022-12-20T02:16:09.293Z,1013.83
2022-12-20T02:17:09.280Z,1013.84
2022-12-20T02:18:09.185Z,1013.76
2022-12-20T02:19:09.187Z,1013.78
2022-12-20T02:20:09.183Z,1013.73
2022-12-20T02:21:09.168Z,1013.79
2022-12-20T02:22:09.159Z,1013.76
2022-12-20T02:23:09.150Z,1013.76
2022-12-20T02:24:09.156Z,1013.80
2022-12-20T02:25:09.136Z,1013.81
2022-12-20T02:26:09.146Z,1013.88
2022-12-20T02:27:09.136Z,1013.82
2022-12-20T02:28:09.132Z,1013.85
2022-12-20T02:29:09.128Z,1013.90
2022-12-20T02:30:09.139Z,1013.92
2022-12-20T02:31:09.117Z,1013.88
2022-12-20T02:32:09.179Z,1013.90
2022-12-20T02:33:09.106Z,1013.88
2022-12-20T02:34:09.105Z,1013.85
2022-12-20T02:35:09.127Z,1013.83
2022-12-20T02:36:09.098Z,1013.79
2022-12-20T02:37:09.097Z,1013.82
2022-12-20T02:38:09.090Z,1013.77
2022-12-20T02:39:09.080Z,1013.78
2022-12-20T02:40:09.089Z,1013.76
2022-12-20T02:41:09.069Z,1013.73
2022-12-20T02:42:09.076Z,1013.72
2022-12-20T02:43:09.061Z,1013.72
2022-12-20T02:44:09.064Z,1013.65
2022-12-20T02:45:09.060Z,1013.64
2022-12-20T02:46:09.134Z,1013.62
2022-12-20T02:47:09.048Z,1013.63
2022-12-20T02:48:09.046Z,1013.68
2022-12-20T02:49:09.042Z,1013.64
2022-12-20T02:50:09.032Z,1013.64
2022-12-20T02:51:09.071Z,1013.67
2022-12-20T02:52:09.024Z,1013.65
2022-12-20T02:53:09.026Z,1013.67
2022-12-20T02:54:09.016Z,1013.67
2022-12-20T02:55:09.009Z,1013.55
2022-12-20T02:56:09.006Z,1013.54
2022-12-20T02:57:08.999Z,1013.51
2022-12-20T02:58:08.996Z,1013.44
2022-12-20T02:59:08.998Z,1013.43
2022-12-20T03:00:08.998Z,1013.48
2022-12-20T03:01:09.037Z,1013.52
2022-12-20T03:02:09.189Z,1013.51
2022-12-20T03:03:09.130Z,1013.49
2022-12-20T03:04:08.994Z,1013.44
2022-12-20T03:05:08.960Z,1013.42
2022-12-20T03:06:08.975Z,1013.42
2022-12-20T03:07:08.980Z,1013.35
2022-12-20T03:08:08.955Z,1013.36
2022-12-20T03:09:08.949Z,1013.35
2022-12-20T03:10:08.957Z,1013.30
2022-12-20T03:11:08.941Z,1013.29
2022-12-20T03:12:08.940Z,1013.22
2022-12-20T03:13:08.931Z,1013.24
2022-12-20T03:14:08.940Z,1013.24
2022-12-20T03:15:08.922Z,1013.17
2022-12-20T03:16:08.925Z,1013.14
2022-12-20T03:17:09.012Z,1013.18
2022-12-20T03:18:08.929Z,1013.20
2022-12-20T03:19:08.907Z,1013.16
2022-12-20T03:20:08.905Z,1013.16
2022-12-20T03:21:08.903Z,1013.17
2022-12-20T03:22:08.895Z,1013.18
2022-12-20T03:23:08.958Z,1013.15
2022-12-20T03:24:08.890Z,1013.18
2022-12-20T03:25:08.881Z,1013.19
2022-12-20T03:26:08.884Z,1013.22
2022-12-20T03:27:08.871Z,1013.17
2022-12-20T03:28:08.872Z,1013.17
2022-12-20T03:29:08.865Z,1013.15
2022-12-20T03:30:08.861Z,1013.20
2022-12-20T03:31:08.947Z,1013.22
2022-12-20T03:32:08.852Z,1013.20
2022-12-20T03:33:08.852Z,1013.30
2022-12-20T03:34:08.847Z,1013.36
2022-12-20T03:35:08.852Z,1013.30
2022-12-20T03:36:08.846Z,1013.26
2022-12-20T03:37:08.850Z,1013.25
2022-12-20T03:38:08.829Z,1013.14
2022-12-20T03:39:08.866Z,1013.08
2022-12-20T03:40:08.823Z,1013.10
2022-12-20T03:41:08.818Z,1013.18
2022-12-20T03:42:08.817Z,1013.23
2022-12-20T03:43:08.816Z,1013.20
2022-12-20T03:44:08.844Z,1013.23
2022-12-20T03:45:08.812Z,1013.23
2022-12-20T03:46:08.845Z,1013.31
2022-12-20T03:47:08.817Z,1013.27
2022-12-20T03:48:08.821Z,1013.27
2022-12-20T03:49:08.780Z,1013.25
2022-12-20T03:50:08.783Z,1013.37
2022-12-20T03:51:08.773Z,1013.42
2022-12-20T03:52:08.776Z,1013.43
2022-12-20T03:53:08.772Z,1013.37
2022-12-20T03:54:08.768Z,1013.46
2022-12-20T03:55:08.778Z,1013.39
2022-12-20T03:56:08.757Z,1013.36
2022-12-20T03:57:08.752Z,1013.36
2022-12-20T03:58:08.748Z,1013.38
2022-12-20T03:59:08.749Z,1013.33
2022-12-20T04:00:08.750Z,1013.40
2022-12-20T04:01:08.778Z,1013.44
2022-12-20T04:02:08.881Z,1013.52
2022-12-20T04:03:08.812Z,1013.61
2022-12-20T04:04:08.720Z,1013.52
2022-12-20T04:05:08.723Z,1013.36
2022-12-20T04:06:08.735Z,1013.37
2022-12-20T04:07:08.705Z,1013.28
2022-12-20T04:08:08.707Z,1013.24
2022-12-20T04:09:08.700Z,1013.17
2022-12-20T04:10:08.711Z,1013.16
2022-12-20T04:11:08.709Z,1013.14
2022-12-20T04:12:08.690Z,1013.12
2022-12-20T04:13:08.686Z,1013.15
2022-12-20T04:14:08.684Z,1013.16
2022-12-20T04:15:08.672Z,1013.08
2022-12-20T04:16:08.737Z,1013.12
2022-12-20T04:17:08.666Z,1013.15
2022-12-20T04:18:08.667Z,1013.24
2022-12-20T04:19:08.655Z,1013.28
2022-12-20T04:20:08.656Z,1013.29
2022-12-20T04:21:08.652Z,1013.21
2022-12-20T04:22:08.654Z,1013.29
2022-12-20T04:23:08.642Z,1013.27
2022-12-20T04:24:08.640Z,1013.29
2022-12-20T04:25:08.634Z,1013.27
2022-12-20T04:26:08.634Z,1013.30
2022-12-20T04:27:08.670Z,1013.28
2022-12-20T04:28:08.626Z,1013.33
2022-12-20T04:29:08.619Z,1013.26
2022-12-20T04:30:08.622Z,1013.29
2022-12-20T04:31:08.718Z,1013.27
2022-12-20T04:32:08.607Z,1013.23
2022-12-20T04:33:08.618Z,1013.21
2022-12-20T04:34:08.605Z,1013.19
2022-12-20T04:35:08.593Z,1013.18
2022-12-20T04:36:08.596Z,1013.14
2022-12-20T04:37:08.585Z,1013.15
2022-12-20T04:38:08.589Z,1013.12
2022-12-20T04:39:08.578Z,1013.06
2022-12-20T04:40:08.583Z,1013.08
2022-12-20T04:41:08.570Z,1013.06
2022-12-20T04:42:08.567Z,1013.13
2022-12-20T04:43:08.588Z,1013.12
2022-12-20T04:44:08.563Z,1013.05
2022-12-20T04:45:08.554Z,1013.04
2022-12-20T04:46:08.598Z,1013.02
2022-12-20T04:47:08.548Z,1013.05
2022-12-20T04:48:37.195Z,1013.03
2022-12-20T04:49:08.542Z,1013.02
2022-12-20T04:50:08.556Z,1013.03
2022-12-20T04:51:08.527Z,1013.09
2022-12-20T04:52:08.534Z,1013.15
2022-12-20T04:53:08.521Z,1013.20
2022-12-20T04:54:08.520Z,1013.17
2022-12-20T04:55:08.528Z,1013.16
2022-12-20T04:56:08.512Z,1013.18
2022-12-20T04:57:08.519Z,1013.14
2022-12-20T04:58:08.515Z,1013.10
2022-12-20T04:59:08.522Z,1013.08
2022-12-20T05:00:08.500Z,1013.05
2022-12-20T05:01:08.491Z,1013.01
2022-12-20T05:02:08.619Z,1013.03
2022-12-20T05:03:08.744Z,1013.01
2022-12-20T05:04:08.557Z,1013.04
2022-12-20T05:05:08.479Z,1013.11
2022-12-20T05:06:08.480Z,1013.11
2022-12-20T05:07:08.485Z,1013.13
2022-12-20T05:08:08.462Z,1013.11
2022-12-20T05:09:08.459Z,1013.11
2022-12-20T05:10:08.467Z,1013.11
2022-12-20T05:11:08.463Z,1013.16
2022-12-20T05:12:08.454Z,1013.08
2022-12-20T05:13:09.503Z,1013.04
2022-12-20T05:14:08.453Z,1013.04
2022-12-20T05:15:08.465Z,1012.97
2022-12-20T05:16:08.512Z,1012.95
2022-12-20T05:17:08.437Z,1012.92
2022-12-20T05:18:08.431Z,1012.93
2022-12-20T05:19:08.421Z,1012.90
2022-12-20T05:20:08.417Z,1012.85
2022-12-20T05:21:08.432Z,1012.82
2022-12-20T05:22:08.417Z,1012.84
2022-12-20T05:23:08.412Z,1012.91
2022-12-20T05:24:08.408Z,1012.98
2022-12-20T05:25:08.412Z,1012.98
2022-12-20T05:26:08.392Z,1013.01
2022-12-20T05:27:08.383Z,1013.00
2022-12-20T05:28:08.385Z,1012.99
2022-12-20T05:29:08.389Z,1012.97
2022-12-20T05:30:08.392Z,1012.95
2022-12-20T05:31:08.432Z,1012.92
2022-12-20T05:32:08.372Z,1012.93
2022-12-20T05:33:08.363Z,1012.92
2022-12-20T05:34:08.370Z,1012.95
2022-12-20T05:35:08.350Z,1012.95
2022-12-20T05:36:08.353Z,1012.95
2022-12-20T05:37:08.344Z,1012.92
2022-12-20T05:38:08.342Z,1012.95
2022-12-20T05:39:08.341Z,1012.97
2022-12-20T05:40:08.349Z,1012.90
2022-12-20T05:41:08.326Z,1012.96
2022-12-20T05:42:08.330Z,1012.91
2022-12-20T05:43:08.320Z,1013.00
2022-12-20T05:44:08.336Z,1012.93
2022-12-20T05:45:08.324Z,1012.88
2022-12-20T05:46:08.383Z,1012.87
2022-12-20T05:47:08.436Z,1012.88
2022-12-20T05:48:08.304Z,1012.92
2022-12-20T05:49:08.291Z,1012.85
2022-12-20T05:50:12.243Z,1012.85
2022-12-20T05:51:08.295Z,1012.78
2022-12-20T05:52:08.316Z,1012.92
2022-12-20T05:53:11.980Z,1012.84
2022-12-20T05:54:08.288Z,1012.85
2022-12-20T05:55:08.271Z,1012.85
2022-12-20T05:56:08.274Z,1012.83
2022-12-20T05:57:08.280Z,1012.77
2022-12-20T05:58:08.267Z,1012.74
2022-12-20T05:59:08.255Z,1012.80
2022-12-20T06:00:08.262Z,1012.78
2022-12-20T06:01:08.274Z,1012.74
2022-12-20T06:02:08.422Z,1012.75
2022-12-20T06:03:08.402Z,1012.75
2022-12-20T06:04:08.331Z,1012.73
2022-12-20T06:05:08.244Z,1012.79
2022-12-20T06:06:13.881Z,1012.82
2022-12-20T06:07:08.229Z,1012.87
2022-12-20T06:08:08.225Z,1012.80
2022-12-20T06:09:08.226Z,1012.80
2022-12-20T06:10:08.219Z,1012.81
2022-12-20T06:11:08.214Z,1012.88
2022-12-20T06:12:08.203Z,1012.91
2022-12-20T06:13:08.219Z,1012.89
2022-12-20T06:14:08.199Z,1012.87
2022-12-20T06:15:08.195Z,1012.81
2022-12-20T06:16:08.240Z,1012.76
2022-12-20T06:17:08.190Z,1012.80
2022-12-20T06:18:08.179Z,1012.79
2022-12-20T06:19:08.219Z,1012.80
2022-12-20T06:20:08.172Z,1012.82
2022-12-20T06:21:08.188Z,1012.76
2022-12-20T06:22:08.165Z,1012.78
2022-12-20T06:23:08.165Z,1012.73
2022-12-20T06:24:08.155Z,1012.77
2022-12-20T06:25:08.158Z,1012.79
2022-12-20T06:26:08.159Z,1012.84
2022-12-20T06:27:08.154Z,1012.90
2022-12-20T06:28:08.162Z,1012.91
2022-12-20T06:29:08.143Z,1012.96
2022-12-20T06:30:08.131Z,1012.97
2022-12-20T06:31:08.170Z,1013.01
2022-12-20T06:32:08.195Z,1012.99
2022-12-20T06:33:08.124Z,1013.01
2022-12-20T06:34:08.124Z,1013.02
2022-12-20T06:35:08.144Z,1013.01
2022-12-20T06:36:08.103Z,1013.04
2022-12-20T06:37:08.110Z,1013.03
2022-12-20T06:38:08.100Z,1013.08
2022-12-20T06:39:09.942Z,1013.02
2022-12-20T06:40:08.102Z,1013.05
2022-12-20T06:41:08.093Z,1013.13
2022-12-20T06:42:08.091Z,1013.12
2022-12-20T06:43:08.084Z,1013.12
2022-12-20T06:44:08.078Z,1013.15
2022-12-20T06:45:08.082Z,1013.04
2022-12-20T06:46:08.132Z,1013.07
2022-12-20T06:47:08.065Z,1013.08
2022-12-20T06:48:08.070Z,1013.09
2022-12-20T06:49:08.055Z,1013.05
2022-12-20T06:50:08.056Z,1013.05
2022-12-20T06:51:08.085Z,1013.11
2022-12-20T06:52:08.044Z,1013.13
2022-12-20T06:53:08.050Z,1013.12
2022-12-20T06:54:08.072Z,1013.12
2022-12-20T06:55:08.045Z,1013.08
2022-12-20T06:56:08.034Z,1013.07
2022-12-20T06:57:08.028Z,1013.10
2022-12-20T06:58:08.038Z,1013.08
2022-12-20T06:59:08.042Z,1013.08
2022-12-20T07:00:08.012Z,1013.16
2022-12-20T07:01:08.072Z,1013.12
2022-12-20T07:02:09.109Z,1013.12
2022-12-20T07:03:08.150Z,1013.08
2022-12-20T07:04:08.014Z,1013.09
2022-12-20T07:05:08.004Z,1013.09
2022-12-20T07:06:07.998Z,1013.17
2022-12-20T07:07:08.016Z,1013.20
2022-12-20T07:08:07.980Z,1013.15
2022-12-20T07:09:07.988Z,1013.20
2022-12-20T07:10:07.975Z,1013.17
2022-12-20T07:11:07.978Z,1013.17
2022-12-20T07:12:07.973Z,1013.18
2022-12-20T07:13:07.974Z,1013.09
2022-12-20T07:14:07.959Z,1013.10
2022-12-20T07:15:07.961Z,1013.08
2022-12-20T07:16:08.007Z,1013.11
2022-12-20T07:17:08.073Z,1013.15
2022-12-20T07:18:08.001Z,1013.16
2022-12-20T07:19:07.943Z,1013.16
2022-12-20T07:20:13.220Z,1013.10
2022-12-20T07:21:07.940Z,1013.13
2022-12-20T07:22:07.929Z,1013.11
2022-12-20T07:23:07.966Z,1013.08
2022-12-20T07:24:07.923Z,1013.06
2022-12-20T07:25:07.928Z,1013.04
2022-12-20T07:26:07.917Z,1013.05
2022-12-20T07:27:07.915Z,1013.09
2022-12-20T07:28:07.905Z,1013.10
2022-12-20T07:29:13.433Z,1013.11
2022-12-20T07:30:07.906Z,1013.13
2022-12-20T07:31:07.904Z,1013.08
2022-12-20T07:32:07.989Z,1013.11
2022-12-20T07:33:07.898Z,1013.12
2022-12-20T07:34:07.883Z,1013.15
2022-12-20T07:35:07.934Z,1013.20
2022-12-20T07:36:07.878Z,1013.09
2022-12-20T07:37:07.900Z,1013.15
2022-12-20T07:38:07.878Z,1013.13
2022-12-20T07:39:07.888Z,1013.12
2022-12-20T07:40:07.854Z,1013.19
2022-12-20T07:41:07.859Z,1013.18
2022-12-20T07:42:07.863Z,1013.17
2022-12-20T07:43:07.853Z,1013.23
2022-12-20T07:44:07.865Z,1013.27
2022-12-20T07:45:07.839Z,1013.29
2022-12-20T07:46:07.883Z,1013.28
2022-12-20T07:47:07.837Z,1013.26
2022-12-20T07:48:12.565Z,1013.27
2022-12-20T07:49:07.824Z,1013.28
2022-12-20T07:50:07.852Z,1013.27
2022-12-20T07:51:07.842Z,1013.23
2022-12-20T07:52:07.820Z,1013.25
2022-12-20T07:53:07.825Z,1013.24
2022-12-20T07:54:07.801Z,1013.27
2022-12-20T07:55:07.828Z,1013.28
2022-12-20T07:56:07.802Z,1013.25
2022-12-20T07:57:07.799Z,1013.35
2022-12-20T07:58:07.807Z,1013.30
2022-12-20T07:59:07.814Z,1013.32
2022-12-20T08:00:07.784Z,1013.34
2022-12-20T08:01:07.834Z,1013.35
2022-12-20T08:02:07.998Z,1013.34
2022-12-20T08:03:07.851Z,1013.35
2022-12-20T08:04:07.893Z,1013.34
2022-12-20T08:05:07.768Z,1013.26
2022-12-20T08:06:07.762Z,1013.33
2022-12-20T08:07:07.763Z,1013.34
2022-12-20T08:08:07.749Z,1013.27
2022-12-20T08:09:07.752Z,1013.33
2022-12-20T08:10:07.743Z,1013.33
2022-12-20T08:11:07.777Z,1013.32
2022-12-20T08:12:07.743Z,1013.32
2022-12-20T08:13:07.738Z,1013.32
2022-12-20T08:14:07.730Z,1013.31
2022-12-20T08:15:07.728Z,1013.31
2022-12-20T08:16:07.740Z,1013.36
2022-12-20T08:17:07.997Z,1013.36
2022-12-20T08:18:07.719Z,1013.32
2022-12-20T08:19:07.713Z,1013.35
2022-12-20T08:20:07.711Z,1013.35
2022-12-20T08:21:07.711Z,1013.35
2022-12-20T08:22:07.702Z,1013.34
2022-12-20T08:23:07.702Z,1013.36
2022-12-20T08:24:07.697Z,1013.37
2022-12-20T08:25:07.689Z,1013.39
2022-12-20T08:26:07.685Z,1013.37
2022-12-20T08:27:07.716Z,1013.36
2022-12-20T08:28:07.703Z,1013.40
2022-12-20T08:29:07.694Z,1013.41
2022-12-20T08:30:07.667Z,1013.37
2022-12-20T08:31:07.976Z,1013.34
2022-12-20T08:32:07.671Z,1013.35
2022-12-20T08:33:07.667Z,1013.33
2022-12-20T08:34:07.663Z,1013.34
2022-12-20T08:35:07.676Z,1013.37
2022-12-20T08:36:08.716Z,1013.33
2022-12-20T08:37:14.274Z,1013.29
2022-12-20T08:38:07.646Z,1013.26
2022-12-20T08:39:07.649Z,1013.27
2022-12-20T08:40:07.666Z,1013.33
2022-12-20T08:41:07.658Z,1013.29
2022-12-20T08:42:07.627Z,1013.27
2022-12-20T08:43:10.385Z,1013.20
2022-12-20T08:44:07.624Z,1013.21
2022-12-20T08:45:07.630Z,1013.17
2022-12-20T08:46:07.682Z,1013.17
2022-12-20T08:47:07.618Z,1013.14
2022-12-20T08:48:07.608Z,1013.14
2022-12-20T08:49:07.621Z,1013.14
2022-12-20T08:50:07.609Z,1013.14
2022-12-20T08:51:07.715Z,1013.14
2022-12-20T08:52:07.596Z,1013.17
2022-12-20T08:53:07.600Z,1013.09
2022-12-20T08:54:07.587Z,1013.16
2022-12-20T08:55:07.609Z,1013.19
2022-12-20T08:56:07.580Z,1013.15
2022-12-20T08:57:07.577Z,1013.22
2022-12-20T08:58:07.574Z,1013.16
2022-12-20T08:59:07.593Z,1013.24
2022-12-20T09:00:07.567Z,1013.24
2022-12-20T09:01:07.667Z,1013.23
2022-12-20T09:02:07.802Z,1013.21
2022-12-20T09:03:07.802Z,1013.25
2022-12-20T09:04:07.599Z,1013.25
2022-12-20T09:05:07.556Z,1013.22
2022-12-20T09:06:07.541Z,1013.24
2022-12-20T09:07:07.551Z,1013.26
2022-12-20T09:08:07.540Z,1013.28
2022-12-20T09:09:07.541Z,1013.26
2022-12-20T09:10:07.530Z,1013.31
2022-12-20T09:11:07.535Z,1013.29
2022-12-20T09:12:07.527Z,1013.31
2022-12-20T09:13:07.530Z,1013.26
2022-12-20T09:14:07.514Z,1013.28
2022-12-20T09:15:07.558Z,1013.28
2022-12-20T09:16:07.667Z,1013.23
2022-12-20T09:17:07.557Z,1013.25
2022-12-20T09:18:07.519Z,1013.25
2022-12-20T09:19:07.510Z,1013.23
2022-12-20T09:20:07.521Z,1013.24
2022-12-20T09:21:07.531Z,1013.26
2022-12-20T09:22:07.493Z,1013.20
2022-12-20T09:23:07.499Z,1013.15
2022-12-20T09:24:07.538Z,1013.16
2022-12-20T09:25:07.513Z,1013.14
2022-12-20T09:26:07.521Z,1013.15
2022-12-20T09:27:07.478Z,1013.13
2022-12-20T09:28:07.470Z,1013.13
2022-12-20T09:29:07.480Z,1013.16
2022-12-20T09:30:07.469Z,1013.19
2022-12-20T09:31:07.567Z,1013.17
2022-12-20T09:32:07.462Z,1013.16
2022-12-20T09:33:10.730Z,1013.12
2022-12-20T09:34:07.447Z,1013.06
2022-12-20T09:35:07.452Z,1013.12
2022-12-20T09:36:07.461Z,1013.09
2022-12-20T09:37:07.448Z,1013.12
2022-12-20T09:38:07.444Z,1013.16
2022-12-20T09:39:07.450Z,1013.13
2022-12-20T09:40:07.481Z,1013.14
2022-12-20T09:41:07.433Z,1013.14
2022-12-20T09:42:07.434Z,1013.11
2022-12-20T09:43:07.424Z,1013.13
2022-12-20T09:44:07.422Z,1013.20
2022-12-20T09:45:07.447Z,1013.17
2022-12-20T09:46:07.454Z,1013.21
2022-12-20T09:47:10.852Z,1013.11
2022-12-20T09:48:07.410Z,1013.11
2022-12-20T09:49:07.411Z,1013.13
2022-12-20T09:50:07.405Z,1013.15
2022-12-20T09:51:07.424Z,1013.15
2022-12-20T09:52:07.400Z,1013.12
2022-12-20T09:53:07.398Z,1013.11
2022-12-20T09:54:07.402Z,1013.10
2022-12-20T09:55:07.403Z,1013.12
2022-12-20T09:56:07.396Z,1013.07
2022-12-20T09:57:07.408Z,1013.05
2022-12-20T09:58:07.380Z,1013.06
2022-12-20T09:59:07.396Z,1013.04
2022-12-20T10:00:07.381Z,1012.99
2022-12-20T10:01:09.680Z,1012.96
2022-12-20T10:02:26.822Z,1012.97
2022-12-20T10:03:10.570Z,1012.98
2022-12-20T10:04:07.514Z,1013.11
2022-12-20T10:05:07.520Z,1013.03
2022-12-20T10:06:07.625Z,1013.01
2022-12-20T10:07:07.359Z,1012.99
2022-12-20T10:08:07.370Z,1012.98
2022-12-20T10:09:07.359Z,1013.02
2022-12-20T10:10:07.352Z,1013.07
2022-12-20T10:11:07.350Z,1013.07
2022-12-20T10:12:07.348Z,1013.01
2022-12-20T10:13:07.345Z,1013.08
2022-12-20T10:14:07.346Z,1013.08
2022-12-20T10:15:07.343Z,1013.08
2022-12-20T10:16:07.404Z,1013.11
2022-12-20T10:17:07.337Z,1013.04
2022-12-20T10:18:07.352Z,1013.08
2022-12-20T10:19:07.349Z,1013.04
2022-12-20T10:20:07.330Z,1013.11
2022-12-20T10:21:07.337Z,1013.07
2022-12-20T10:22:07.328Z,1013.06
2022-12-20T10:23:07.322Z,1013.09
2022-12-20T10:24:07.327Z,1013.03
2022-12-20T10:25:07.332Z,1013.03
2022-12-20T10:26:07.316Z,1013.00
2022-12-20T10:27:07.311Z,1013.03
2022-12-20T10:28:07.314Z,1012.99
2022-12-20T10:29:07.305Z,1013.03
2022-12-20T10:30:07.308Z,1013.00
2022-12-20T10:31:07.378Z,1013.04
2022-12-20T10:32:07.299Z,1013.03
2022-12-20T10:33:07.300Z,1012.96
2022-12-20T10:34:07.300Z,1012.94
2022-12-20T10:35:07.328Z,1012.88
2022-12-20T10:36:07.347Z,1012.89
2022-12-20T10:37:07.290Z,1012.85
2022-12-20T10:38:08.775Z,1012.82
2022-12-20T10:39:07.284Z,1012.80
2022-12-20T10:40:07.923Z,1012.75
2022-12-20T10:41:23.544Z,1012.76
2022-12-20T10:42:07.283Z,1012.74
2022-12-20T10:43:07.278Z,1012.68
2022-12-20T10:44:07.278Z,1012.64
2022-12-20T10:45:07.279Z,1012.68
2022-12-20T10:46:07.328Z,1012.59
2022-12-20T10:47:07.321Z,1012.57
2022-12-20T10:48:07.287Z,1012.60
2022-12-20T10:49:07.267Z,1012.52
2022-12-20T10:50:07.271Z,1012.56
2022-12-20T10:51:11.984Z,1012.55
2022-12-20T10:52:07.261Z,1012.47
2022-12-20T10:53:07.257Z,1012.52
2022-12-20T10:54:07.261Z,1012.46
2022-12-20T10:55:07.251Z,1012.47
2022-12-20T10:56:07.262Z,1012.39
2022-12-20T10:57:11.788Z,1012.37
2022-12-20T10:58:07.249Z,1012.45
2022-12-20T10:59:07.248Z,1012.42
2022-12-20T11:00:07.246Z,1012.39
2022-12-20T11:01:07.244Z,1012.45
2022-12-20T11:02:07.443Z,1012.40
2022-12-20T11:03:07.513Z,1012.34
2022-12-20T11:04:07.305Z,1012.33
2022-12-20T11:05:07.237Z,1012.35
2022-12-20T11:06:07.256Z,1012.26
2022-12-20T11:07:07.264Z,1012.27
2022-12-20T11:09:07.552Z,1012.14
2022-12-20T11:10:07.232Z,1012.14
2022-12-20T11:11:07.230Z,1012.14
2022-12-20T11:12:07.245Z,1012.04
2022-12-20T11:13:07.219Z,1012.10
2022-12-20T11:14:07.229Z,1012.10
2022-12-20T11:15:07.221Z,1012.13
2022-12-20T11:16:07.263Z,1012.09
2022-12-20T11:17:07.215Z,1012.10
2022-12-20T11:18:07.208Z,1012.07
2022-12-20T11:19:07.214Z,1012.01
2022-12-20T11:20:07.212Z,1012.02
2022-12-20T11:21:12.657Z,1012.02
2022-12-20T11:22:07.207Z,1011.96
2022-12-20T11:23:07.233Z,1011.98
2022-12-20T11:24:07.214Z,1011.91
2022-12-20T11:25:07.235Z,1011.87
2022-12-20T11:26:07.200Z,1011.81
2022-12-20T11:27:11.955Z,1011.90
2022-12-20T11:28:07.197Z,1011.82
2022-12-20T11:29:07.199Z,1011.81
2022-12-20T11:30:07.192Z,1011.90
2022-12-20T11:31:07.279Z,1011.92
2022-12-20T11:32:07.194Z,1011.96
2022-12-20T11:33:07.187Z,1011.94
2022-12-20T11:34:07.192Z,1011.93
2022-12-20T11:35:07.187Z,1011.83
2022-12-20T11:36:07.190Z,1011.85
2022-12-20T11:37:07.184Z,1011.77
2022-12-20T11:38:09.799Z,1011.79
2022-12-20T11:39:07.204Z,1011.77
2022-12-20T11:40:07.227Z,1011.76
2022-12-20T11:41:07.179Z,1011.84
2022-12-20T11:42:07.177Z,1011.77
2022-12-20T11:43:07.175Z,1011.65
2022-12-20T11:45:10.119Z,1011.65
2022-12-20T11:46:07.167Z,1011.64
2022-12-20T11:47:07.238Z,1011.72
2022-12-20T11:48:07.185Z,1011.66
2022-12-20T11:49:07.164Z,1011.68
2022-12-20T11:50:07.174Z,1011.60
2022-12-20T11:51:10.934Z,1011.68
2022-12-20T11:52:07.166Z,1011.70
2022-12-20T11:53:07.167Z,1011.67
2022-12-20T11:54:07.163Z,1011.67
2022-12-20T11:55:07.184Z,1011.69
2022-12-20T11:56:07.160Z,1011.66
2022-12-20T11:57:07.152Z,1011.61
2022-12-20T11:58:18.450Z,1011.53
2022-12-20T11:59:07.152Z,1011.57
2022-12-20T12:00:07.155Z,1011.56
2022-12-20T12:01:07.150Z,1011.51
2022-12-20T12:02:07.295Z,1011.54
2022-12-20T12:03:07.189Z,1011.47
2022-12-20T12:04:07.143Z,1011.53
2022-12-20T12:05:07.180Z,1011.51
2022-12-20T12:06:07.140Z,1011.44
2022-12-20T12:07:07.142Z,1011.48